createdAt,value
2018-05-27T00:01:44.595Z,19.50
2018-05-27T00:04:12.162Z,19.48
2018-05-27T00:06:39.966Z,19.41
2018-05-27T00:09:07.472Z,19.46
2018-05-27T00:11:34.984Z,19.45
2018-05-27T00:14:02.488Z,19.51
2018-05-27T00:16:30.004Z,19.50
2018-05-27T00:18:57.552Z,19.48
2018-05-27T00:21:25.058Z,19.43
2018-05-27T00:23:52.586Z,19.43
2018-05-27T00:26:20.109Z,19.37
2018-05-27T00:28:47.642Z,19.33
2018-05-27T00:31:15.156Z,19.36
2018-05-27T00:33:42.671Z,19.38
2018-05-27T00:36:10.170Z,19.42
2018-05-27T00:38:37.682Z,19.36
2018-05-27T00:41:05.263Z,19.35
2018-05-27T00:43:32.772Z,19.23
2018-05-27T00:46:00.286Z,19.19
2018-05-27T00:48:27.839Z,19.19
2018-05-27T00:50:55.351Z,19.19
2018-05-27T00:53:34.674Z,19.15
2018-05-27T00:56:02.319Z,19.03
2018-05-27T00:58:29.846Z,18.90
2018-05-27T01:00:57.351Z,18.91
2018-05-27T01:03:24.847Z,18.86
2018-05-27T01:05:52.356Z,18.86
2018-05-27T01:08:19.868Z,18.89
2018-05-27T01:10:47.377Z,18.80
2018-05-27T01:13:14.931Z,18.79
2018-05-27T01:15:42.433Z,18.70
2018-05-27T01:18:09.979Z,18.59
2018-05-27T01:20:37.479Z,18.55
2018-05-27T01:23:05.008Z,18.48
2018-05-27T01:25:32.559Z,18.47
2018-05-27T01:28:00.083Z,18.45
2018-05-27T01:30:27.647Z,18.43
2018-05-27T01:32:55.155Z,18.47
2018-05-27T01:35:22.653Z,18.47
2018-05-27T01:37:50.157Z,18.44
2018-05-27T01:40:17.657Z,18.41
2018-05-27T01:42:45.215Z,18.35
2018-05-27T01:45:12.719Z,18.34
2018-05-27T01:47:40.238Z,18.32
2018-05-27T01:50:07.768Z,18.29
2018-05-27T01:52:35.287Z,18.31
2018-05-27T01:55:03.007Z,18.27
2018-05-27T01:57:31.367Z,18.22
2018-05-27T01:59:58.863Z,18.14
2018-05-27T02:02:26.374Z,17.75
2018-05-27T02:04:53.884Z,17.86
2018-05-27T02:07:21.388Z,17.95
2018-05-27T02:09:48.931Z,17.96
2018-05-27T02:12:16.467Z,18.07
2018-05-27T02:14:44.042Z,18.07
2018-05-27T02:17:11.568Z,18.22
2018-05-27T02:19:39.078Z,18.29
2018-05-27T02:22:06.602Z,18.35
2018-05-27T02:24:34.115Z,18.40
2018-05-27T02:27:01.682Z,18.38
2018-05-27T02:29:29.195Z,18.36
2018-05-27T02:31:56.708Z,18.33
2018-05-27T02:34:24.221Z,18.33
2018-05-27T02:36:51.785Z,18.33
2018-05-27T02:39:19.303Z,18.32
2018-05-27T02:41:46.800Z,18.34
2018-05-27T02:44:14.380Z,18.34
2018-05-27T02:46:41.894Z,18.33
2018-05-27T02:49:09.403Z,18.23
2018-05-27T02:51:36.902Z,18.19
2018-05-27T02:54:04.421Z,18.19
2018-05-27T02:56:31.923Z,18.16
2018-05-27T02:58:59.425Z,18.07
2018-05-27T03:01:26.964Z,18.08
2018-05-27T03:03:54.465Z,17.97
2018-05-27T03:06:21.993Z,17.74
2018-05-27T03:08:49.504Z,17.98
2018-05-27T03:11:17.004Z,18.07
2018-05-27T03:13:44.511Z,18.15
2018-05-27T03:16:12.041Z,18.27
2018-05-27T03:18:39.534Z,18.27
2018-05-27T03:21:07.044Z,18.32
2018-05-27T03:23:34.550Z,18.33
2018-05-27T03:26:02.053Z,18.28
2018-05-27T03:28:29.566Z,18.20
2018-05-27T03:30:57.092Z,18.19
2018-05-27T03:33:24.599Z,18.17
2018-05-27T03:35:52.219Z,18.21
2018-05-27T03:38:19.727Z,18.21
2018-05-27T03:40:47.245Z,18.22
2018-05-27T03:43:14.736Z,18.30
2018-05-27T03:45:42.249Z,18.25
2018-05-27T03:48:09.781Z,18.29
2018-05-27T03:50:37.286Z,18.33
2018-05-27T03:53:04.835Z,18.28
2018-05-27T03:55:32.344Z,18.37
2018-05-27T03:57:59.872Z,18.36
2018-05-27T04:00:27.396Z,18.36
2018-05-27T04:02:54.900Z,18.25
2018-05-27T04:05:34.155Z,18.17
2018-05-27T04:08:13.473Z,18.21
2018-05-27T04:10:40.989Z,18.17
2018-05-27T04:13:08.560Z,18.19
2018-05-27T04:15:36.067Z,18.20
2018-05-27T04:18:03.591Z,18.23
2018-05-27T04:20:31.098Z,18.23
2018-05-27T04:22:58.611Z,18.34
2018-05-27T04:25:26.118Z,18.44
2018-05-27T04:27:53.651Z,18.54
2018-05-27T04:30:21.204Z,18.44
2018-05-27T04:32:48.715Z,18.42
2018-05-27T04:35:16.240Z,18.50
2018-05-27T04:37:43.776Z,18.46
2018-05-27T04:40:11.299Z,18.42
2018-05-27T04:42:38.862Z,18.28
2018-05-27T04:45:06.396Z,18.17
2018-05-27T04:47:33.946Z,18.23
2018-05-27T04:50:01.517Z,18.16
2018-05-27T04:52:29.052Z,18.16
2018-05-27T04:54:56.618Z,18.26
2018-05-27T04:57:24.115Z,18.30
2018-05-27T04:59:51.638Z,18.34
2018-05-27T05:02:19.145Z,18.40
2018-05-27T05:04:46.688Z,18.48
2018-05-27T05:07:14.213Z,18.58
2018-05-27T05:09:41.730Z,18.72
2018-05-27T05:12:09.259Z,18.79
2018-05-27T05:14:36.832Z,18.84
2018-05-27T05:17:04.344Z,18.92
2018-05-27T05:19:31.879Z,19.03
2018-05-27T05:21:59.397Z,19.08
2018-05-27T05:24:26.903Z,19.11
2018-05-27T05:26:54.414Z,19.13
2018-05-27T05:29:21.934Z,19.19
2018-05-27T05:31:49.490Z,19.21
2018-05-27T05:34:17.076Z,19.40
2018-05-27T05:36:44.596Z,19.53
2018-05-27T05:39:12.360Z,19.29
2018-05-27T05:41:39.857Z,19.65
2018-05-27T05:44:07.385Z,19.89
2018-05-27T05:46:34.924Z,19.93
2018-05-27T05:49:02.485Z,20.07
2018-05-27T05:51:30.024Z,20.12
2018-05-27T05:53:57.540Z,20.29
2018-05-27T05:56:25.062Z,20.46
2018-05-27T05:58:52.615Z,20.59
2018-05-27T06:01:20.137Z,20.62
2018-05-27T06:03:47.659Z,20.59
2018-05-27T06:06:16.515Z,20.61
2018-05-27T06:08:44.028Z,20.57
2018-05-27T06:11:11.550Z,20.50
2018-05-27T06:13:39.119Z,20.55
2018-05-27T06:16:06.601Z,20.60
2018-05-27T06:18:34.159Z,20.63
2018-05-27T06:21:01.689Z,20.68
2018-05-27T06:23:29.200Z,20.70
2018-05-27T06:25:56.709Z,20.79
2018-05-27T06:28:24.267Z,20.86
2018-05-27T06:30:51.796Z,20.97
2018-05-27T06:33:20.253Z,21.13
2018-05-27T06:35:47.801Z,21.17
2018-05-27T06:38:15.364Z,21.28
2018-05-27T06:40:42.871Z,21.37
2018-05-27T06:43:10.423Z,21.34
2018-05-27T06:45:37.939Z,21.42
2018-05-27T06:48:05.440Z,21.42
2018-05-27T06:50:32.995Z,21.48
2018-05-27T06:53:00.503Z,21.53
2018-05-27T06:55:28.016Z,21.40
2018-05-27T06:57:55.550Z,21.55
2018-05-27T07:00:23.113Z,21.61
2018-05-27T07:02:50.643Z,21.74
2018-05-27T07:05:18.169Z,21.98
2018-05-27T07:07:45.725Z,22.10
2018-05-27T07:10:13.222Z,22.16
2018-05-27T07:12:40.735Z,22.25
2018-05-27T07:15:08.255Z,22.28
2018-05-27T07:17:35.779Z,22.38
2018-05-27T07:20:03.317Z,22.56
2018-05-27T07:22:30.816Z,22.68
2018-05-27T07:24:58.343Z,22.86
2018-05-27T07:27:25.904Z,22.95
2018-05-27T07:29:53.419Z,23.03
2018-05-27T07:32:20.943Z,23.19
2018-05-27T07:34:48.458Z,23.26
2018-05-27T07:37:16.025Z,23.53
2018-05-27T07:39:43.623Z,23.45
2018-05-27T07:42:11.157Z,23.66
2018-05-27T07:44:38.658Z,23.64
2018-05-27T07:47:06.172Z,23.75
2018-05-27T07:49:33.700Z,23.69
2018-05-27T07:52:01.229Z,23.73
2018-05-27T07:54:28.738Z,23.55
2018-05-27T07:56:56.361Z,23.40
2018-05-27T07:59:23.872Z,23.47
2018-05-27T08:01:51.437Z,23.53
2018-05-27T08:04:18.960Z,23.52
2018-05-27T08:06:46.603Z,23.57
2018-05-27T08:09:14.102Z,23.65
2018-05-27T08:11:41.631Z,23.46
2018-05-27T08:14:09.167Z,23.36
2018-05-27T08:16:36.788Z,23.27
2018-05-27T08:19:04.291Z,23.21
2018-05-27T08:21:31.816Z,23.13
2018-05-27T08:23:59.330Z,22.94
2018-05-27T08:26:26.915Z,22.93
2018-05-27T08:28:54.432Z,23.13
2018-05-27T08:31:22.727Z,23.27
2018-05-27T08:33:50.251Z,23.39
2018-05-27T08:36:17.771Z,23.52
2018-05-27T08:38:45.278Z,23.56
2018-05-27T08:41:12.796Z,23.43
2018-05-27T08:43:40.311Z,23.54
2018-05-27T08:46:07.834Z,23.62
2018-05-27T08:48:35.359Z,23.83
2018-05-27T08:51:02.924Z,23.72
2018-05-27T08:53:30.483Z,23.72
2018-05-27T08:55:58.036Z,23.83
2018-05-27T08:58:25.576Z,23.98
2018-05-27T09:00:53.102Z,24.21
2018-05-27T09:03:20.620Z,24.26
2018-05-27T09:05:48.137Z,24.41
2018-05-27T09:08:15.658Z,24.44
2018-05-27T09:10:43.273Z,24.43
2018-05-27T09:13:10.816Z,24.20
2018-05-27T09:15:38.348Z,24.43
2018-05-27T09:18:05.907Z,24.54
2018-05-27T09:20:33.446Z,24.42
2018-05-27T09:23:00.989Z,24.58
2018-05-27T09:25:28.518Z,24.52
2018-05-27T09:27:56.048Z,24.53
2018-05-27T09:30:23.625Z,24.43
2018-05-27T09:32:51.150Z,24.15
2018-05-27T09:35:18.682Z,24.43
2018-05-27T09:37:46.264Z,24.68
2018-05-27T09:40:13.810Z,24.81
2018-05-27T09:42:41.370Z,24.93
2018-05-27T09:45:08.969Z,25.14
2018-05-27T09:47:36.500Z,25.33
2018-05-27T09:50:04.023Z,25.44
2018-05-27T09:52:31.648Z,25.41
2018-05-27T09:54:59.201Z,25.45
2018-05-27T09:57:26.725Z,25.10
2018-05-27T09:59:54.288Z,24.80
2018-05-27T10:02:21.840Z,25.00
2018-05-27T10:04:49.560Z,25.08
2018-05-27T10:07:17.072Z,25.18
2018-05-27T10:09:44.608Z,25.42
2018-05-27T10:12:12.175Z,25.27
2018-05-27T10:14:39.694Z,25.24
2018-05-27T10:17:08.078Z,25.08
2018-05-27T10:19:35.619Z,24.85
2018-05-27T10:22:03.167Z,24.72
2018-05-27T10:24:30.721Z,24.75
2018-05-27T10:26:58.275Z,24.72
2018-05-27T10:29:25.857Z,24.67
2018-05-27T10:31:53.371Z,24.72
2018-05-27T10:34:20.879Z,24.68
2018-05-27T10:36:48.497Z,24.73
2018-05-27T10:39:16.049Z,24.61
2018-05-27T10:41:43.555Z,24.39
2018-05-27T10:44:11.103Z,24.39
2018-05-27T10:46:38.615Z,24.71
2018-05-27T10:49:06.123Z,25.20
2018-05-27T10:51:33.637Z,25.55
2018-05-27T10:54:01.201Z,25.81
2018-05-27T10:56:28.720Z,26.13
2018-05-27T10:58:56.224Z,26.47
2018-05-27T11:01:24.543Z,27.09
2018-05-27T11:03:52.051Z,27.58
2018-05-27T11:06:19.691Z,27.37
2018-05-27T11:08:47.204Z,27.53
2018-05-27T11:11:14.718Z,28.03
2018-05-27T11:13:42.236Z,28.48
2018-05-27T11:16:09.767Z,28.99
2018-05-27T11:18:37.309Z,29.22
2018-05-27T11:21:04.838Z,29.43
2018-05-27T11:23:32.377Z,29.84
2018-05-27T11:25:59.883Z,30.25
2018-05-27T11:28:27.414Z,30.59
2018-05-27T11:30:55.213Z,30.35
2018-05-27T11:33:22.708Z,29.65
2018-05-27T11:35:50.259Z,29.09
2018-05-27T11:38:17.785Z,29.35
2018-05-27T11:40:45.367Z,29.70
2018-05-27T11:43:12.874Z,30.25
2018-05-27T11:45:40.380Z,30.48
2018-05-27T11:48:07.893Z,30.68
2018-05-27T11:50:35.404Z,31.07
2018-05-27T11:53:02.953Z,31.24
2018-05-27T11:55:30.471Z,31.37
2018-05-27T11:57:58.076Z,30.87
2018-05-27T12:00:25.610Z,30.88
2018-05-27T12:02:53.155Z,30.77
2018-05-27T12:05:20.690Z,30.93
2018-05-27T12:07:48.209Z,31.06
2018-05-27T12:10:15.726Z,31.42
2018-05-27T12:12:43.271Z,32.02
2018-05-27T12:15:10.826Z,31.97
2018-05-27T12:17:38.419Z,30.81
2018-05-27T12:20:05.970Z,30.45
2018-05-27T12:22:33.494Z,30.49
2018-05-27T12:25:01.067Z,30.73
2018-05-27T12:27:28.585Z,30.37
2018-05-27T12:29:56.141Z,30.71
2018-05-27T12:32:23.708Z,31.37
2018-05-27T12:34:51.218Z,31.68
2018-05-27T12:37:18.722Z,31.59
2018-05-27T12:39:46.270Z,31.77
2018-05-27T12:42:13.820Z,31.87
2018-05-27T12:44:41.356Z,32.46
2018-05-27T12:47:08.866Z,32.89
2018-05-27T12:49:36.440Z,32.52
2018-05-27T12:52:03.951Z,32.45
2018-05-27T12:54:31.502Z,31.99
2018-05-27T12:56:59.130Z,31.11
2018-05-27T12:59:26.621Z,30.94
2018-05-27T13:01:54.147Z,31.16
2018-05-27T13:04:21.745Z,31.45
2018-05-27T13:06:49.265Z,31.05
2018-05-27T13:09:16.788Z,30.24
2018-05-27T13:11:44.384Z,29.46
2018-05-27T13:14:11.960Z,28.85
2018-05-27T13:16:39.633Z,28.24
2018-05-27T13:19:07.760Z,28.86
2018-05-27T13:21:35.354Z,29.81
2018-05-27T13:24:02.884Z,30.15
2018-05-27T13:26:30.412Z,30.68
2018-05-27T13:28:58.745Z,31.34
2018-05-27T13:31:26.320Z,30.85
2018-05-27T13:33:53.935Z,30.80
2018-05-27T13:36:21.436Z,31.14
2018-05-27T13:38:48.953Z,31.74
2018-05-27T13:41:16.490Z,32.40
2018-05-27T13:43:44.019Z,32.39
2018-05-27T13:46:11.570Z,32.04
2018-05-27T13:48:39.146Z,31.02
2018-05-27T13:51:06.703Z,30.11
2018-05-27T13:53:34.298Z,30.54
2018-05-27T13:56:01.877Z,30.55
2018-05-27T13:58:29.459Z,30.88
2018-05-27T14:00:57.026Z,31.37
2018-05-27T14:03:24.600Z,31.33
2018-05-27T14:05:52.146Z,31.71
2018-05-27T14:08:19.715Z,32.04
2018-05-27T14:10:47.255Z,31.82
2018-05-27T14:13:14.824Z,31.38
2018-05-27T14:15:42.403Z,30.81
2018-05-27T14:18:09.934Z,30.98
2018-05-27T14:20:37.478Z,31.16
2018-05-27T14:23:05.046Z,30.95
2018-05-27T14:25:32.555Z,30.44
2018-05-27T14:28:00.107Z,30.09
2018-05-27T14:30:27.662Z,29.99
2018-05-27T14:32:55.228Z,30.36
2018-05-27T14:35:23.702Z,30.81
2018-05-27T14:37:52.025Z,30.28
2018-05-27T14:40:19.536Z,30.78
2018-05-27T14:42:47.059Z,31.06
2018-05-27T14:45:14.601Z,31.78
2018-05-27T14:47:42.112Z,32.01
2018-05-27T14:50:09.616Z,31.31
2018-05-27T14:52:37.896Z,30.82
2018-05-27T14:55:05.429Z,30.62
2018-05-27T14:57:32.957Z,30.28
2018-05-27T15:00:00.467Z,30.66
2018-05-27T15:02:27.991Z,30.37
2018-05-27T15:04:55.539Z,29.79
2018-05-27T15:07:23.091Z,30.08
2018-05-27T15:09:50.624Z,29.92
2018-05-27T15:12:18.732Z,29.24
2018-05-27T15:14:46.299Z,28.60
2018-05-27T15:17:13.815Z,28.04
2018-05-27T15:19:41.351Z,28.14
2018-05-27T15:22:08.865Z,28.56
2018-05-27T15:24:36.403Z,29.18
2018-05-27T15:27:03.962Z,29.35
2018-05-27T15:29:31.551Z,29.71
2018-05-27T15:31:59.093Z,29.65
2018-05-27T15:34:26.663Z,29.36
2018-05-27T15:36:54.218Z,29.27
2018-05-27T15:39:21.715Z,29.19
2018-05-27T15:41:49.280Z,29.14
2018-05-27T15:44:16.796Z,29.31
2018-05-27T15:46:44.396Z,29.26
2018-05-27T15:49:11.916Z,29.07
2018-05-27T15:51:39.460Z,28.94
2018-05-27T15:54:06.970Z,28.70
2018-05-27T15:56:34.513Z,28.59
2018-05-27T15:59:02.023Z,28.32
2018-05-27T16:01:29.610Z,28.57
2018-05-27T16:03:57.140Z,28.57
2018-05-27T16:06:24.659Z,28.72
2018-05-27T16:08:52.469Z,28.68
2018-05-27T16:11:20.763Z,28.86
2018-05-27T16:13:48.316Z,28.94
2018-05-27T16:16:15.815Z,29.01
2018-05-27T16:18:43.332Z,28.87
2018-05-27T16:21:10.921Z,28.76
2018-05-27T16:23:38.481Z,28.76
2018-05-27T16:26:05.991Z,28.82
2018-05-27T16:28:33.525Z,28.83
2018-05-27T16:31:01.103Z,28.57
2018-05-27T16:33:28.606Z,28.33
2018-05-27T16:35:56.116Z,28.27
2018-05-27T16:38:23.982Z,28.04
2018-05-27T16:40:51.724Z,27.88
2018-05-27T16:43:19.236Z,27.57
2018-05-27T16:45:46.830Z,27.60
2018-05-27T16:48:14.315Z,27.50
2018-05-27T16:50:41.829Z,27.10
2018-05-27T16:53:09.501Z,27.00
2018-05-27T16:55:37.028Z,26.78
2018-05-27T16:58:05.651Z,26.47
2018-05-27T17:00:33.264Z,25.90
2018-05-27T17:03:00.814Z,25.56
2018-05-27T17:05:30.564Z,25.46
2018-05-27T17:07:58.100Z,25.38
2018-05-27T17:10:25.607Z,25.26
2018-05-27T17:12:53.110Z,25.42
2018-05-27T17:15:20.667Z,25.43
2018-05-27T17:17:48.258Z,25.28
2018-05-27T17:20:15.802Z,25.03
2018-05-27T17:22:43.305Z,24.85
2018-05-27T17:25:10.815Z,24.62
2018-05-27T17:27:38.532Z,24.24
2018-05-27T17:30:07.865Z,24.16
2018-05-27T17:32:35.487Z,24.07
2018-05-27T17:35:03.082Z,23.78
2018-05-27T17:37:30.705Z,23.61
2018-05-27T17:39:58.320Z,23.44
2018-05-27T17:42:25.873Z,23.34
2018-05-27T17:44:54.263Z,23.27
2018-05-27T17:47:21.834Z,23.27
2018-05-27T17:49:49.443Z,23.12
2018-05-27T17:52:17.015Z,22.94
2018-05-27T17:54:44.524Z,22.86
2018-05-27T17:57:12.125Z,22.67
2018-05-27T17:59:39.668Z,22.59
2018-05-27T18:02:07.166Z,22.59
2018-05-27T18:04:34.718Z,22.43
2018-05-27T18:07:02.319Z,22.39
2018-05-27T18:09:29.840Z,22.30
2018-05-27T18:11:58.534Z,22.27
2018-05-27T18:14:26.158Z,22.14
2018-05-27T18:16:53.681Z,22.14
2018-05-27T18:19:21.184Z,22.05
2018-05-27T18:21:48.730Z,22.04
2018-05-27T18:24:16.274Z,22.00
2018-05-27T18:26:43.826Z,21.87
2018-05-27T18:29:11.412Z,21.84
2018-05-27T18:31:38.959Z,21.88
2018-05-27T18:34:06.502Z,21.97
2018-05-27T18:36:34.521Z,21.93
2018-05-27T18:39:02.045Z,21.95
2018-05-27T18:41:29.560Z,21.90
2018-05-27T18:43:58.317Z,21.95
2018-05-27T18:46:25.834Z,21.93
2018-05-27T18:48:53.365Z,21.87
2018-05-27T18:51:20.882Z,21.87
2018-05-27T18:53:48.434Z,21.86
2018-05-27T18:56:15.969Z,21.77
2018-05-27T18:58:43.498Z,21.75
2018-05-27T19:01:11.010Z,21.69
2018-05-27T19:03:38.534Z,21.59
2018-05-27T19:06:06.061Z,21.53
2018-05-27T19:08:33.571Z,21.47
2018-05-27T19:11:01.163Z,21.50
2018-05-27T19:13:28.691Z,21.48
2018-05-27T19:15:56.245Z,21.44
2018-05-27T19:18:23.761Z,21.39
2018-05-27T19:20:51.263Z,21.26
2018-05-27T19:23:18.797Z,21.27
2018-05-27T19:25:46.343Z,21.24
2018-05-27T19:28:13.856Z,21.11
2018-05-27T19:30:41.376Z,20.99
2018-05-27T19:33:08.881Z,20.85
2018-05-27T19:35:36.449Z,20.92
2018-05-27T19:38:03.971Z,20.80
2018-05-27T19:40:31.493Z,20.86
2018-05-27T19:42:59.013Z,20.86
2018-05-27T19:45:26.536Z,20.63
2018-05-27T19:47:54.040Z,20.51
2018-05-27T19:50:22.428Z,20.55
2018-05-27T19:52:49.989Z,20.47
2018-05-27T19:55:18.035Z,20.31
2018-05-27T19:57:45.612Z,20.28
2018-05-27T20:00:14.551Z,20.29
2018-05-27T20:02:42.109Z,20.10
2018-05-27T20:05:09.626Z,20.17
2018-05-27T20:07:37.147Z,20.15
2018-05-27T20:10:04.687Z,20.15
2018-05-27T20:12:32.238Z,20.20
2018-05-27T20:14:59.799Z,20.09
2018-05-27T20:17:27.324Z,20.22
2018-05-27T20:19:54.879Z,20.17
2018-05-27T20:22:22.399Z,20.13
2018-05-27T20:24:49.900Z,20.15
2018-05-27T20:27:17.479Z,20.10
2018-05-27T20:29:45.049Z,20.14
2018-05-27T20:32:13.484Z,20.09
2018-05-27T20:34:41.047Z,20.10
2018-05-27T20:37:08.573Z,20.20
2018-05-27T20:46:21.451Z,19.97
2018-05-27T20:48:48.972Z,19.93
2018-05-27T20:51:16.539Z,19.95
2018-05-27T20:53:44.076Z,19.95
2018-05-27T20:56:11.591Z,19.90
2018-05-27T20:58:39.112Z,19.82
2018-05-27T21:01:06.855Z,19.82
2018-05-27T21:03:34.386Z,19.91
2018-05-27T21:06:01.912Z,19.74
2018-05-27T21:08:29.439Z,19.76
2018-05-27T21:10:57.282Z,19.81
2018-05-27T21:13:24.875Z,19.74
2018-05-27T21:15:52.386Z,19.66
2018-05-27T21:18:19.977Z,19.61
2018-05-27T21:20:47.491Z,19.55
2018-05-27T21:23:15.001Z,19.58
2018-05-27T21:25:42.514Z,19.60
2018-05-27T21:28:10.053Z,19.60
2018-05-27T21:30:37.559Z,19.52
2018-05-27T21:33:05.091Z,19.51
2018-05-27T21:35:32.611Z,19.38
2018-05-27T21:38:00.158Z,19.39
2018-05-27T21:40:27.703Z,19.40
2018-05-27T21:42:55.216Z,19.33
2018-05-27T21:45:22.776Z,19.19
2018-05-27T21:47:50.286Z,19.20
2018-05-27T21:50:17.797Z,19.23
2018-05-27T21:52:46.608Z,19.21
2018-05-27T21:55:14.158Z,19.21
2018-05-27T21:57:41.665Z,19.19
2018-05-27T22:00:09.240Z,19.12
2018-05-27T22:02:36.775Z,19.13
2018-05-27T22:05:04.289Z,19.02
2018-05-27T22:07:31.801Z,18.95
2018-05-27T22:09:59.318Z,18.90
2018-05-27T22:12:26.819Z,18.91
2018-05-27T22:14:54.358Z,18.80
2018-05-27T22:17:21.965Z,18.75
2018-05-27T22:19:49.498Z,18.71
2018-05-27T22:22:17.043Z,18.67
2018-05-27T22:24:44.550Z,18.73
2018-05-27T22:27:12.061Z,18.71
2018-05-27T22:29:39.589Z,18.78
2018-05-27T22:32:07.105Z,18.78
2018-05-27T22:34:34.606Z,18.75
2018-05-27T22:37:02.110Z,18.73
2018-05-27T22:39:29.646Z,18.66
2018-05-27T22:41:57.161Z,18.58
2018-05-27T22:44:24.718Z,18.52
2018-05-27T22:46:52.231Z,18.45
2018-05-27T22:49:19.804Z,18.41
2018-05-27T22:51:47.318Z,18.31
2018-05-27T22:54:14.824Z,18.35
2018-05-27T22:56:42.334Z,18.36
2018-05-27T22:59:09.838Z,18.34
2018-05-27T23:01:37.362Z,18.29
2018-05-27T23:04:04.871Z,18.25
2018-05-27T23:06:32.380Z,18.30
2018-05-27T23:08:59.874Z,18.35
2018-05-27T23:11:27.386Z,18.41
2018-05-27T23:13:54.886Z,18.38
2018-05-27T23:16:22.453Z,18.38
2018-05-27T23:18:50.012Z,18.41
2018-05-27T23:21:17.608Z,18.40
2018-05-27T23:23:45.200Z,18.40
2018-05-27T23:26:12.783Z,18.38
2018-05-27T23:28:40.316Z,18.40
2018-05-27T23:31:07.855Z,18.40
2018-05-27T23:33:35.373Z,18.30
2018-05-27T23:36:02.923Z,18.21
2018-05-27T23:38:30.492Z,18.12
2018-05-27T23:40:58.013Z,18.08
2018-05-27T23:43:25.748Z,18.00
2018-05-27T23:45:53.318Z,17.98
2018-05-27T23:48:20.890Z,18.00
2018-05-27T23:50:48.390Z,17.95
2018-05-27T23:53:15.903Z,17.83
2018-05-27T23:55:43.466Z,17.77
2018-05-27T23:58:10.994Z,17.70
